<?xml version="1.0" encoding="UTF-8"?>
<gpx creator="WikiLoc - http://www.wikiloc.com" version="1.1" xmlns="http://www.topografix.com/GPX/1/1">
    <wpt lat="37.766601" lon="-0.843756">
        <ele>0.000000</ele>
        <time>2010-07-27T11:48:29.551+02:00</time>
        <name>Cabezo Gordo - Sima de las Palomas</name>
        <cmt/>
        <desc/>
    </wpt>
    <trk>
        <name>CABEZO GORDO - SIMA DE LAS PALOMAS - CUEVA DEL AGUA - BICIESPELEOLOGIA</name>
        <cmt>BICIESPELEOLOGIA: Término acuñado por David al incorporar una linterna en el cogote a su bicicleta. Julio 2010 Cabezo Gordo desde Los Narejos con Paco Marin y David Ruiz.</cmt>
        <desc>BICIESPELEOLOGIA: Término acuñado por David al incorporar una linterna en el cogote a su bicicleta. Julio 2010 Cabezo Gordo desde Los Narejos con Paco Marin y David Ruiz.</desc>
        <trkseg>
            <trkpt lat="37.766601" lon="-0.843756">
                <ele>8.000000</ele>
                <time>2011-11-18T20:37:27.113+01:00</time>
            </trkpt>
            <trkpt lat="37.766445" lon="-0.843870">
                <ele>8.000000</ele>
                <time>2011-11-18T20:37:37.113+01:00</time>
            </trkpt>
            <trkpt lat="37.767639" lon="-0.843891">
                <ele>9.000000</ele>
                <time>2011-11-18T20:37:57.113+01:00</time>
            </trkpt>
            <trkpt lat="37.781320" lon="-0.840878">
                <ele>14.000000</ele>
                <time>2011-11-18T20:38:27.113+01:00</time>
            </trkpt>
            <trkpt lat="37.781519" lon="-0.840924">
                <ele>14.000000</ele>
                <time>2011-11-18T20:39:07.113+01:00</time>
            </trkpt>
            <trkpt lat="37.781633" lon="-0.841152">
                <ele>14.000000</ele>
                <time>2011-11-18T20:39:57.113+01:00</time>
            </trkpt>
            <trkpt lat="37.781532" lon="-0.841891">
                <ele>11.000000</ele>
                <time>2011-11-18T20:40:57.113+01:00</time>
            </trkpt>
            <trkpt lat="37.779571" lon="-0.845179">
                <ele>12.000000</ele>
                <time>2011-11-18T20:42:07.113+01:00</time>
            </trkpt>
            <trkpt lat="37.778769" lon="-0.846260">
                <ele>11.000000</ele>
                <time>2011-11-18T20:43:27.113+01:00</time>
            </trkpt>
            <trkpt lat="37.778237" lon="-0.847338">
                <ele>14.000000</ele>
                <time>2011-11-18T20:44:57.113+01:00</time>
            </trkpt>
            <trkpt lat="37.783970" lon="-0.852125">
                <ele>16.000000</ele>
                <time>2011-11-18T20:46:37.113+01:00</time>
            </trkpt>
            <trkpt lat="37.783929" lon="-0.852352">
                <ele>16.000000</ele>
                <time>2011-11-18T20:48:27.113+01:00</time>
            </trkpt>
            <trkpt lat="37.778674" lon="-0.856674">
                <ele>9.000000</ele>
                <time>2011-11-18T20:50:27.113+01:00</time>
            </trkpt>
            <trkpt lat="37.778617" lon="-0.856900">
                <ele>9.000000</ele>
                <time>2011-11-18T20:52:37.113+01:00</time>
            </trkpt>
            <trkpt lat="37.789107" lon="-0.867118">
                <ele>23.000000</ele>
                <time>2011-11-18T20:54:57.113+01:00</time>
            </trkpt>
            <trkpt lat="37.789146" lon="-0.867359">
                <ele>23.000000</ele>
                <time>2011-11-18T20:57:27.113+01:00</time>
            </trkpt>
            <trkpt lat="37.786904" lon="-0.869669">
                <ele>26.000000</ele>
                <time>2011-11-18T21:00:07.113+01:00</time>
            </trkpt>
            <trkpt lat="37.787431" lon="-0.869986">
                <ele>27.000000</ele>
                <time>2011-11-18T21:02:57.113+01:00</time>
            </trkpt>
            <trkpt lat="37.787531" lon="-0.870207">
                <ele>26.000000</ele>
                <time>2011-11-18T21:05:57.113+01:00</time>
            </trkpt>
            <trkpt lat="37.788761" lon="-0.874101">
                <ele>30.000000</ele>
                <time>2011-11-18T21:09:07.113+01:00</time>
            </trkpt>
            <trkpt lat="37.787738" lon="-0.875217">
                <ele>29.000000</ele>
                <time>2011-11-18T21:12:27.113+01:00</time>
            </trkpt>
            <trkpt lat="37.787699" lon="-0.875928">
                <ele>30.000000</ele>
                <time>2011-11-18T21:15:57.113+01:00</time>
            </trkpt>
            <trkpt lat="37.789746" lon="-0.879426">
                <ele>31.000000</ele>
                <time>2011-11-18T21:19:37.113+01:00</time>
            </trkpt>
            <trkpt lat="37.791032" lon="-0.880749">
                <ele>32.000000</ele>
                <time>2011-11-18T21:23:27.113+01:00</time>
            </trkpt>
            <trkpt lat="37.794051" lon="-0.883096">
                <ele>38.000000</ele>
                <time>2011-11-18T21:27:27.113+01:00</time>
            </trkpt>
            <trkpt lat="37.796029" lon="-0.884911">
                <ele>39.000000</ele>
                <time>2011-11-18T21:31:37.113+01:00</time>
            </trkpt>
            <trkpt lat="37.796093" lon="-0.885148">
                <ele>39.000000</ele>
                <time>2011-11-18T21:35:57.113+01:00</time>
            </trkpt>
            <trkpt lat="37.796015" lon="-0.888139">
                <ele>38.000000</ele>
                <time>2011-11-18T21:40:27.113+01:00</time>
            </trkpt>
            <trkpt lat="37.796934" lon="-0.890571">
                <ele>39.000000</ele>
                <time>2011-11-18T21:45:07.113+01:00</time>
            </trkpt>
            <trkpt lat="37.797063" lon="-0.891386">
                <ele>38.000000</ele>
                <time>2011-11-18T21:49:57.113+01:00</time>
            </trkpt>
            <trkpt lat="37.795452" lon="-0.899903">
                <ele>46.000000</ele>
                <time>2011-11-18T21:54:57.113+01:00</time>
            </trkpt>
            <trkpt lat="37.796569" lon="-0.900329">
                <ele>60.000000</ele>
                <time>2011-11-18T22:00:07.113+01:00</time>
            </trkpt>
            <trkpt lat="37.796919" lon="-0.900233">
                <ele>65.000000</ele>
                <time>2011-11-18T22:05:27.113+01:00</time>
            </trkpt>
            <trkpt lat="37.797484" lon="-0.899245">
                <ele>75.000000</ele>
                <time>2011-11-18T22:10:57.113+01:00</time>
            </trkpt>
            <trkpt lat="37.797618" lon="-0.899397">
                <ele>76.000000</ele>
                <time>2011-11-18T22:16:37.113+01:00</time>
            </trkpt>
            <trkpt lat="37.797871" lon="-0.897764">
                <ele>84.000000</ele>
                <time>2011-11-18T22:22:27.113+01:00</time>
            </trkpt>
            <trkpt lat="37.798180" lon="-0.897139">
                <ele>93.000000</ele>
                <time>2011-11-18T22:28:27.113+01:00</time>
            </trkpt>
            <trkpt lat="37.798475" lon="-0.896867">
                <ele>126.000000</ele>
                <time>2011-11-18T22:34:37.113+01:00</time>
            </trkpt>
            <trkpt lat="37.798046" lon="-0.897375">
                <ele>96.000000</ele>
                <time>2011-11-18T22:40:57.113+01:00</time>
            </trkpt>
            <trkpt lat="37.797879" lon="-0.897852">
                <ele>84.000000</ele>
                <time>2011-11-18T22:47:27.113+01:00</time>
            </trkpt>
            <trkpt lat="37.797701" lon="-0.898876">
                <ele>88.000000</ele>
                <time>2011-11-18T22:54:07.113+01:00</time>
            </trkpt>
            <trkpt lat="37.797808" lon="-0.899542">
                <ele>89.000000</ele>
                <time>2011-11-18T23:00:57.113+01:00</time>
            </trkpt>
            <trkpt lat="37.797951" lon="-0.899118">
                <ele>104.000000</ele>
                <time>2011-11-18T23:07:57.113+01:00</time>
            </trkpt>
            <trkpt lat="37.796906" lon="-0.898684">
                <ele>56.000000</ele>
                <time>2011-11-18T23:15:07.113+01:00</time>
            </trkpt>
            <trkpt lat="37.797952" lon="-0.899033">
                <ele>104.000000</ele>
                <time>2011-11-18T23:22:27.113+01:00</time>
            </trkpt>
            <trkpt lat="37.797810" lon="-0.899460">
                <ele>89.000000</ele>
                <time>2011-11-18T23:29:57.113+01:00</time>
            </trkpt>
            <trkpt lat="37.797471" lon="-0.899254">
                <ele>75.000000</ele>
                <time>2011-11-18T23:37:37.113+01:00</time>
            </trkpt>
            <trkpt lat="37.797172" lon="-0.899914">
                <ele>70.000000</ele>
                <time>2011-11-18T23:45:27.113+01:00</time>
            </trkpt>
            <trkpt lat="37.796546" lon="-0.900673">
                <ele>62.000000</ele>
                <time>2011-11-18T23:53:27.113+01:00</time>
            </trkpt>
            <trkpt lat="37.796119" lon="-0.902349">
                <ele>66.000000</ele>
                <time>2011-11-19T00:01:37.113+01:00</time>
            </trkpt>
            <trkpt lat="37.796236" lon="-0.903503">
                <ele>67.000000</ele>
                <time>2011-11-19T00:09:57.113+01:00</time>
            </trkpt>
            <trkpt lat="37.796645" lon="-0.903982">
                <ele>79.000000</ele>
                <time>2011-11-19T00:18:27.113+01:00</time>
            </trkpt>
            <trkpt lat="37.797014" lon="-0.904146">
                <ele>86.000000</ele>
                <time>2011-11-19T00:27:07.113+01:00</time>
            </trkpt>
            <trkpt lat="37.796942" lon="-0.903898">
                <ele>87.000000</ele>
                <time>2011-11-19T00:35:57.113+01:00</time>
            </trkpt>
            <trkpt lat="37.796801" lon="-0.904054">
                <ele>79.000000</ele>
                <time>2011-11-19T00:44:57.113+01:00</time>
            </trkpt>
            <trkpt lat="37.796625" lon="-0.903964">
                <ele>79.000000</ele>
                <time>2011-11-19T00:54:07.113+01:00</time>
            </trkpt>
            <trkpt lat="37.796209" lon="-0.903476">
                <ele>67.000000</ele>
                <time>2011-11-19T01:03:27.113+01:00</time>
            </trkpt>
            <trkpt lat="37.796103" lon="-0.902462">
                <ele>67.000000</ele>
                <time>2011-11-19T01:12:57.113+01:00</time>
            </trkpt>
            <trkpt lat="37.796483" lon="-0.900756">
                <ele>60.000000</ele>
                <time>2011-11-19T01:22:37.113+01:00</time>
            </trkpt>
            <trkpt lat="37.796732" lon="-0.900406">
                <ele>60.000000</ele>
                <time>2011-11-19T01:32:27.113+01:00</time>
            </trkpt>
            <trkpt lat="37.795615" lon="-0.900022">
                <ele>46.000000</ele>
                <time>2011-11-19T01:42:27.113+01:00</time>
            </trkpt>
            <trkpt lat="37.794363" lon="-0.904121">
                <ele>53.000000</ele>
                <time>2011-11-19T01:52:37.113+01:00</time>
            </trkpt>
            <trkpt lat="37.794426" lon="-0.904687">
                <ele>53.000000</ele>
                <time>2011-11-19T02:02:57.113+01:00</time>
            </trkpt>
            <trkpt lat="37.795485" lon="-0.906091">
                <ele>61.000000</ele>
                <time>2011-11-19T02:13:27.113+01:00</time>
            </trkpt>
            <trkpt lat="37.795751" lon="-0.910535">
                <ele>69.000000</ele>
                <time>2011-11-19T02:24:07.113+01:00</time>
            </trkpt>
            <trkpt lat="37.796200" lon="-0.912446">
                <ele>69.000000</ele>
                <time>2011-11-19T02:34:57.113+01:00</time>
            </trkpt>
            <trkpt lat="37.797755" lon="-0.914669">
                <ele>80.000000</ele>
                <time>2011-11-19T02:45:57.113+01:00</time>
            </trkpt>
            <trkpt lat="37.798908" lon="-0.918502">
                <ele>82.000000</ele>
                <time>2011-11-19T02:57:07.113+01:00</time>
            </trkpt>
            <trkpt lat="37.799493" lon="-0.919934">
                <ele>80.000000</ele>
                <time>2011-11-19T03:08:27.113+01:00</time>
            </trkpt>
            <trkpt lat="37.800506" lon="-0.921126">
                <ele>78.000000</ele>
                <time>2011-11-19T03:19:57.113+01:00</time>
            </trkpt>
            <trkpt lat="37.800889" lon="-0.920985">
                <ele>81.000000</ele>
                <time>2011-11-19T03:31:37.113+01:00</time>
            </trkpt>
            <trkpt lat="37.800975" lon="-0.921231">
                <ele>85.000000</ele>
                <time>2011-11-19T03:43:27.113+01:00</time>
            </trkpt>
            <trkpt lat="37.802549" lon="-0.922183">
                <ele>81.000000</ele>
                <time>2011-11-19T03:55:27.113+01:00</time>
            </trkpt>
            <trkpt lat="37.803814" lon="-0.922567">
                <ele>88.000000</ele>
                <time>2011-11-19T04:07:37.113+01:00</time>
            </trkpt>
            <trkpt lat="37.804156" lon="-0.922316">
                <ele>92.000000</ele>
                <time>2011-11-19T04:19:57.113+01:00</time>
            </trkpt>
            <trkpt lat="37.804768" lon="-0.922998">
                <ele>85.000000</ele>
                <time>2011-11-19T04:32:27.113+01:00</time>
            </trkpt>
            <trkpt lat="37.805389" lon="-0.923016">
                <ele>85.000000</ele>
                <time>2011-11-19T04:45:07.113+01:00</time>
            </trkpt>
            <trkpt lat="37.805872" lon="-0.922616">
                <ele>87.000000</ele>
                <time>2011-11-19T04:57:57.113+01:00</time>
            </trkpt>
            <trkpt lat="37.806247" lon="-0.922039">
                <ele>88.000000</ele>
                <time>2011-11-19T05:10:57.113+01:00</time>
            </trkpt>
            <trkpt lat="37.806685" lon="-0.919218">
                <ele>90.000000</ele>
                <time>2011-11-19T05:24:07.113+01:00</time>
            </trkpt>
            <trkpt lat="37.806544" lon="-0.918526">
                <ele>91.000000</ele>
                <time>2011-11-19T05:37:27.113+01:00</time>
            </trkpt>
            <trkpt lat="37.805940" lon="-0.917591">
                <ele>102.000000</ele>
                <time>2011-11-19T05:50:57.113+01:00</time>
            </trkpt>
            <trkpt lat="37.806722" lon="-0.919015">
                <ele>91.000000</ele>
                <time>2011-11-19T06:04:37.113+01:00</time>
            </trkpt>
            <trkpt lat="37.806916" lon="-0.918981">
                <ele>89.000000</ele>
                <time>2011-11-19T06:18:27.113+01:00</time>
            </trkpt>
            <trkpt lat="37.806558" lon="-0.919542">
                <ele>90.000000</ele>
                <time>2011-11-19T06:32:27.113+01:00</time>
            </trkpt>
            <trkpt lat="37.806161" lon="-0.922212">
                <ele>87.000000</ele>
                <time>2011-11-19T06:46:37.113+01:00</time>
            </trkpt>
            <trkpt lat="37.805714" lon="-0.922725">
                <ele>86.000000</ele>
                <time>2011-11-19T07:00:57.113+01:00</time>
            </trkpt>
            <trkpt lat="37.805159" lon="-0.923081">
                <ele>85.000000</ele>
                <time>2011-11-19T07:15:27.113+01:00</time>
            </trkpt>
            <trkpt lat="37.805020" lon="-0.923528">
                <ele>83.000000</ele>
                <time>2011-11-19T07:30:07.113+01:00</time>
            </trkpt>
            <trkpt lat="37.805193" lon="-0.923447">
                <ele>84.000000</ele>
                <time>2011-11-19T07:44:57.113+01:00</time>
            </trkpt>
            <trkpt lat="37.806154" lon="-0.922470">
                <ele>86.000000</ele>
                <time>2011-11-19T07:59:57.113+01:00</time>
            </trkpt>
            <trkpt lat="37.807337" lon="-0.920773">
                <ele>82.000000</ele>
                <time>2011-11-19T08:15:07.113+01:00</time>
            </trkpt>
            <trkpt lat="37.809235" lon="-0.918731">
                <ele>81.000000</ele>
                <time>2011-11-19T08:30:27.113+01:00</time>
            </trkpt>
            <trkpt lat="37.809659" lon="-0.916336">
                <ele>84.000000</ele>
                <time>2011-11-19T08:45:57.113+01:00</time>
            </trkpt>
            <trkpt lat="37.810251" lon="-0.914200">
                <ele>74.000000</ele>
                <time>2011-11-19T09:01:37.113+01:00</time>
            </trkpt>
            <trkpt lat="37.812814" lon="-0.911538">
                <ele>65.000000</ele>
                <time>2011-11-19T09:17:27.113+01:00</time>
            </trkpt>
            <trkpt lat="37.812753" lon="-0.910448">
                <ele>64.000000</ele>
                <time>2011-11-19T09:33:27.113+01:00</time>
            </trkpt>
            <trkpt lat="37.811379" lon="-0.909011">
                <ele>68.000000</ele>
                <time>2011-11-19T09:49:37.113+01:00</time>
            </trkpt>
            <trkpt lat="37.810807" lon="-0.908717">
                <ele>69.000000</ele>
                <time>2011-11-19T10:05:57.113+01:00</time>
            </trkpt>
            <trkpt lat="37.810100" lon="-0.906443">
                <ele>64.000000</ele>
                <time>2011-11-19T10:22:27.113+01:00</time>
            </trkpt>
            <trkpt lat="37.809625" lon="-0.904270">
                <ele>61.000000</ele>
                <time>2011-11-19T10:39:07.113+01:00</time>
            </trkpt>
            <trkpt lat="37.808657" lon="-0.901688">
                <ele>61.000000</ele>
                <time>2011-11-19T10:55:57.113+01:00</time>
            </trkpt>
            <trkpt lat="37.806021" lon="-0.898221">
                <ele>61.000000</ele>
                <time>2011-11-19T11:12:57.113+01:00</time>
            </trkpt>
            <trkpt lat="37.804822" lon="-0.895312">
                <ele>52.000000</ele>
                <time>2011-11-19T11:30:07.113+01:00</time>
            </trkpt>
            <trkpt lat="37.803118" lon="-0.892914">
                <ele>52.000000</ele>
                <time>2011-11-19T11:47:27.113+01:00</time>
            </trkpt>
            <trkpt lat="37.801237" lon="-0.890640">
                <ele>52.000000</ele>
                <time>2011-11-19T12:04:57.113+01:00</time>
            </trkpt>
            <trkpt lat="37.799838" lon="-0.889745">
                <ele>42.000000</ele>
                <time>2011-11-19T12:22:37.113+01:00</time>
            </trkpt>
            <trkpt lat="37.798640" lon="-0.888649">
                <ele>44.000000</ele>
                <time>2011-11-19T12:40:27.113+01:00</time>
            </trkpt>
            <trkpt lat="37.798239" lon="-0.888467">
                <ele>43.000000</ele>
                <time>2011-11-19T12:58:27.113+01:00</time>
            </trkpt>
            <trkpt lat="37.792963" lon="-0.887081">
                <ele>32.000000</ele>
                <time>2011-11-19T13:16:37.113+01:00</time>
            </trkpt>
            <trkpt lat="37.791473" lon="-0.886920">
                <ele>30.000000</ele>
                <time>2011-11-19T13:34:57.113+01:00</time>
            </trkpt>
            <trkpt lat="37.790489" lon="-0.887061">
                <ele>30.000000</ele>
                <time>2011-11-19T13:53:27.113+01:00</time>
            </trkpt>
            <trkpt lat="37.790401" lon="-0.886836">
                <ele>28.000000</ele>
                <time>2011-11-19T14:12:07.113+01:00</time>
            </trkpt>
            <trkpt lat="37.790818" lon="-0.884753">
                <ele>25.000000</ele>
                <time>2011-11-19T14:30:57.113+01:00</time>
            </trkpt>
            <trkpt lat="37.790117" lon="-0.879901">
                <ele>31.000000</ele>
                <time>2011-11-19T14:49:57.113+01:00</time>
            </trkpt>
            <trkpt lat="37.789159" lon="-0.878644">
                <ele>31.000000</ele>
                <time>2011-11-19T15:09:07.113+01:00</time>
            </trkpt>
            <trkpt lat="37.787712" lon="-0.876062">
                <ele>30.000000</ele>
                <time>2011-11-19T15:28:27.113+01:00</time>
            </trkpt>
            <trkpt lat="37.787353" lon="-0.875777">
                <ele>29.000000</ele>
                <time>2011-11-19T15:47:57.113+01:00</time>
            </trkpt>
            <trkpt lat="37.787092" lon="-0.875019">
                <ele>28.000000</ele>
                <time>2011-11-19T16:07:37.113+01:00</time>
            </trkpt>
            <trkpt lat="37.786394" lon="-0.873937">
                <ele>26.000000</ele>
                <time>2011-11-19T16:27:27.113+01:00</time>
            </trkpt>
            <trkpt lat="37.785287" lon="-0.873213">
                <ele>28.000000</ele>
                <time>2011-11-19T16:47:27.113+01:00</time>
            </trkpt>
            <trkpt lat="37.783994" lon="-0.872916">
                <ele>25.000000</ele>
                <time>2011-11-19T17:07:37.113+01:00</time>
            </trkpt>
            <trkpt lat="37.779682" lon="-0.870962">
                <ele>23.000000</ele>
                <time>2011-11-19T17:27:57.113+01:00</time>
            </trkpt>
            <trkpt lat="37.777855" lon="-0.869466">
                <ele>25.000000</ele>
                <time>2011-11-19T17:48:27.113+01:00</time>
            </trkpt>
            <trkpt lat="37.776535" lon="-0.866815">
                <ele>19.000000</ele>
                <time>2011-11-19T18:09:07.113+01:00</time>
            </trkpt>
            <trkpt lat="37.774676" lon="-0.865106">
                <ele>16.000000</ele>
                <time>2011-11-19T18:29:57.113+01:00</time>
            </trkpt>
            <trkpt lat="37.772673" lon="-0.861444">
                <ele>14.000000</ele>
                <time>2011-11-19T18:50:57.113+01:00</time>
            </trkpt>
            <trkpt lat="37.771534" lon="-0.859922">
                <ele>15.000000</ele>
                <time>2011-11-19T19:12:07.113+01:00</time>
            </trkpt>
            <trkpt lat="37.771305" lon="-0.859290">
                <ele>15.000000</ele>
                <time>2011-11-19T19:33:27.113+01:00</time>
            </trkpt>
            <trkpt lat="37.770642" lon="-0.858813">
                <ele>17.000000</ele>
                <time>2011-11-19T19:54:57.113+01:00</time>
            </trkpt>
            <trkpt lat="37.769630" lon="-0.858378">
                <ele>20.000000</ele>
                <time>2011-11-19T20:16:37.113+01:00</time>
            </trkpt>
            <trkpt lat="37.767836" lon="-0.856506">
                <ele>12.000000</ele>
                <time>2011-11-19T20:38:27.113+01:00</time>
            </trkpt>
            <trkpt lat="37.768270" lon="-0.855726">
                <ele>14.000000</ele>
                <time>2011-11-19T21:00:27.113+01:00</time>
            </trkpt>
            <trkpt lat="37.768320" lon="-0.854990">
                <ele>15.000000</ele>
                <time>2011-11-19T21:22:37.113+01:00</time>
            </trkpt>
            <trkpt lat="37.768718" lon="-0.854103">
                <ele>12.000000</ele>
                <time>2011-11-19T21:44:57.113+01:00</time>
            </trkpt>
            <trkpt lat="37.768762" lon="-0.853094">
                <ele>10.000000</ele>
                <time>2011-11-19T22:07:27.113+01:00</time>
            </trkpt>
            <trkpt lat="37.768590" lon="-0.852645">
                <ele>9.000000</ele>
                <time>2011-11-19T22:30:07.113+01:00</time>
            </trkpt>
            <trkpt lat="37.768095" lon="-0.852236">
                <ele>8.000000</ele>
                <time>2011-11-19T22:52:57.113+01:00</time>
            </trkpt>
            <trkpt lat="37.768005" lon="-0.851777">
                <ele>8.000000</ele>
                <time>2011-11-19T23:15:57.113+01:00</time>
            </trkpt>
            <trkpt lat="37.767360" lon="-0.851351">
                <ele>8.000000</ele>
                <time>2011-11-19T23:39:07.113+01:00</time>
            </trkpt>
            <trkpt lat="37.768037" lon="-0.851851">
                <ele>9.000000</ele>
                <time>2011-11-20T00:02:27.113+01:00</time>
            </trkpt>
            <trkpt lat="37.768149" lon="-0.852288">
                <ele>8.000000</ele>
                <time>2011-11-20T00:25:57.113+01:00</time>
            </trkpt>
            <trkpt lat="37.768776" lon="-0.852816">
                <ele>10.000000</ele>
                <time>2011-11-20T00:49:37.113+01:00</time>
            </trkpt>
            <trkpt lat="37.768735" lon="-0.854315">
                <ele>14.000000</ele>
                <time>2011-11-20T01:13:27.113+01:00</time>
            </trkpt>
            <trkpt lat="37.768374" lon="-0.854996">
                <ele>15.000000</ele>
                <time>2011-11-20T01:37:27.113+01:00</time>
            </trkpt>
            <trkpt lat="37.768287" lon="-0.856021">
                <ele>15.000000</ele>
                <time>2011-11-20T02:01:37.113+01:00</time>
            </trkpt>
            <trkpt lat="37.767786" lon="-0.856391">
                <ele>12.000000</ele>
                <time>2011-11-20T02:25:57.113+01:00</time>
            </trkpt>
            <trkpt lat="37.767604" lon="-0.856273">
                <ele>11.000000</ele>
                <time>2011-11-20T02:50:27.113+01:00</time>
            </trkpt>
            <trkpt lat="37.765681" lon="-0.854005">
                <ele>8.000000</ele>
                <time>2011-11-20T03:15:07.113+01:00</time>
            </trkpt>
            <trkpt lat="37.760922" lon="-0.845263">
                <ele>4.000000</ele>
                <time>2011-11-20T03:39:57.113+01:00</time>
            </trkpt>
            <trkpt lat="37.761032" lon="-0.845045">
                <ele>5.000000</ele>
                <time>2011-11-20T04:04:57.113+01:00</time>
            </trkpt>
            <trkpt lat="37.765807" lon="-0.844103">
                <ele>8.000000</ele>
                <time>2011-11-20T04:30:07.113+01:00</time>
            </trkpt>
            <trkpt lat="37.766521" lon="-0.843802">
                <ele>8.000000</ele>
                <time>2011-11-20T04:55:27.113+01:00</time>
            </trkpt>
        </trkseg>
    </trk>
</gpx>